Flight Track Log - Related Links

Times and Time Zones

All times are in EDT time to prevent confusion due to time zone crossing. See the N525GV flight status page for this flight to view local times or setup timezone preferences in your user account.

Time Position Orientation Groundspeed Altitude Reporting Facility
EDT Latitude Longitude Course Direction KTS MPH feet Rate Location/Type
Mon 02:47:42 PM 32.2233 -86.4917 305° West 205 236 5,400  Level Atlanta Center
Mon 02:48:42 PM 32.1703 -86.5317 213° Southwest 225 259 7,600 2,250 Climbing Atlanta Center
Mon 02:49:42 PM 32.1192 -86.5769 217° Southwest 219 252 9,900 2,250 Climbing Atlanta Center
Mon 02:50:42 PM 32.0639 -86.6219 215° Southwest 230 265 12,100 2,100 Climbing Atlanta Center
Mon 02:51:00 PM 32.5086 -86.7673 301° West  Level FlightAware Approximate
Mon 02:51:42 PM 32.0108 -86.6694 217° Southwest 241 277 14,100  Level Atlanta Center
Mon 02:52:00 PM 32.5536 -86.8448 305° West  Level FlightAware Approximate
Mon 02:52:42 PM 31.9617 -86.7219 222° Southwest 246 283 15,900  Level Atlanta Center
Mon 02:53:00 PM 32.5997 -86.9216 305° West  Level FlightAware Approximate
Mon 02:53:42 PM 31.9144 -86.7839 228° Southwest 246 283 17,800  Level Atlanta Center
Mon 02:54:42 PM 31.8856 -86.8614 246° West 251 289 19,000 1,300 Climbing Atlanta Center
Mon 02:55:42 PM 31.8897 -86.9472 273° West 251 289 20,400 1,300 Climbing Atlanta Center
Mon 02:56:42 PM 31.9108 -87.0311 287° West 261 300 21,600 1,200 Climbing Atlanta Center
Mon 02:57:42 PM 31.9611 -87.1036 309° West 266 306 22,800 1,150 Climbing Atlanta Center
Mon 02:58:42 PM 32.0136 -87.1789 309° West 277 319 23,900 1,000 Climbing Atlanta Center
Mon 02:59:42 PM 32.0514 -87.2489 302° West 285 328 24,800 1,000 Climbing Atlanta Center
Mon 03:00:42 PM 32.0994 -87.3292 305° West 291 335 25,900 1,100 Climbing Atlanta Center
Mon 03:01:42 PM 32.1453 -87.4092 304° West 291 335 27,000 1,100 Climbing Atlanta Center
Mon 03:02:42 PM 32.1889 -87.4869 304° West 291 335 28,100 1,050 Climbing Atlanta Center
Mon 03:03:42 PM 32.2389 -87.5700 305° West 296 341 29,100 1,050 Climbing Atlanta Center
Mon 03:04:42 PM 32.2844 -87.6503 304° West 296 341 30,200 1,050 Climbing Atlanta Center
Mon 03:05:42 PM 32.3261 -87.7283 302° West 296 341 31,200 597 Climbing Atlanta Center
Mon 03:07:43 PM 32.4200 -87.8914 304° West 297 342 32,000 265 Climbing Memphis Center
Mon 03:08:43 PM 32.4697 -87.9786 304° West 311 358 32,000  Level Memphis Center
Mon 03:09:43 PM 32.5214 -88.0708 304° West 325 374 32,000  Level Memphis Center
Mon 03:10:43 PM 32.5731 -88.1633 304° West 330 380 32,000  Level Memphis Center
Mon 03:11:43 PM 32.6247 -88.2533 304° West 335 386 32,000  Level Memphis Center
Mon 03:12:43 PM 32.6764 -88.3483 303° West 340 391 32,000  Level Memphis Center
Mon 03:13:43 PM 32.7342 -88.4358 308° West 340 391 32,000  Level Memphis Center
Mon 03:14:43 PM 32.8044 -88.5258 313° West 340 391 32,000  Level Memphis Center
Mon 03:15:43 PM 32.8642 -88.6111 310° West 340 391 32,000  Level Memphis Center
Mon 03:16:43 PM 32.9281 -88.6964 312° West 345 397 32,000  Level Memphis Center
Mon 03:17:43 PM 32.9939 -88.7794 313° West 345 397 32,000  Level Memphis Center
Mon 03:18:43 PM 33.0553 -88.8675 310° West 345 397 32,000  Level Memphis Center
Mon 03:19:43 PM 33.1169 -88.9533 311° West 345 397 32,000  Level Memphis Center
Mon 03:20:43 PM 33.1764 -89.0442 308° West 345 397 32,000  Level Memphis Center
Mon 03:21:43 PM 33.2253 -89.1403 301° West 345 397 32,000  Level Memphis Center
Mon 03:22:43 PM 33.2744 -89.2392 301° West 339 390 32,000  Level Memphis Center
Mon 03:23:43 PM 33.3253 -89.3331 303° West 339 390 32,000  Level Memphis Center
Mon 03:24:43 PM 33.3697 -89.4344 298° West 344 396 32,000  Level Memphis Center
Mon 03:25:43 PM 33.4103 -89.5261 298° West 344 396 32,000  Level Memphis Center
Mon 03:26:43 PM 33.4547 -89.6253 298° West 344 396 32,000  Level Memphis Center
Mon 03:27:43 PM 33.5011 -89.7244 299° West 344 396 32,000  Level Memphis Center
Mon 03:28:43 PM 33.5433 -89.8264 296° West 344 396 32,000  Level Memphis Center
Mon 03:29:43 PM 33.5856 -89.9258 297° West 344 396 32,000  Level Memphis Center
Mon 03:30:43 PM 33.6317 -90.0278 299° West 344 396 32,000  Level Memphis Center
Mon 03:31:43 PM 33.6736 -90.1275 297° West 344 396 32,000  Level Memphis Center
Mon 03:32:43 PM 33.7197 -90.2272 299° West 344 396 32,000  Level Memphis Center
Mon 03:33:43 PM 33.7617 -90.3272 297° West 344 396 32,000  Level Memphis Center
Mon 03:34:43 PM 33.8075 -90.4272 299° West 344 396 32,000 -500 Level Memphis Center
Mon 03:35:43 PM 33.8533 -90.5397 296° West 344 396 31,000 -1,500 Descending Memphis Center
Mon 03:36:43 PM 33.9031 -90.6525 298° West 356 410 29,000 -1,950 Descending Memphis Center
Mon 03:37:43 PM 33.9528 -90.7703 297° West 387 445 27,100 -1,950 Descending Memphis Center
Mon 03:38:43 PM 33.9964 -90.8758 297° West 376 433 25,100 -1,850 Descending Memphis Center
Mon 03:39:43 PM 34.0397 -90.9689 299° West 365 420 23,400 -2,000 Descending Memphis Center
Mon 03:40:43 PM 34.0831 -91.0769 296° West 359 413 21,100 -2,250 Descending Memphis Center
Mon 03:41:43 PM 34.1242 -91.1778 296° West 345 397 18,900 -2,150 Descending Memphis Center
Mon 03:42:43 PM 34.1694 -91.2786 299° West 340 391 16,800 -2,235 Descending Memphis Center
Mon 03:43:25 PM 34.1981 -91.3567 294° West 329 379 15,100 -2,214 Descending Memphis Center
Mon 03:44:26 PM 34.2431 -91.4603 298° West 328 377 13,000 -1,734 Descending Memphis Center
Mon 03:45:33 PM 34.2964 -91.5514 305° West 322 371 11,400 -1,276 Descending Memphis Center
Mon 03:46:33 PM 34.3603 -91.6278 315° West 309 356 10,300 -1,091 Descending Memphis Center
Mon 03:47:34 PM 34.4222 -91.7067 314° West 301 346 9,200 -963 Descending Memphis Center
Mon 03:49:00 PM 34.4669 -91.8338 306° West  Level FlightAware Approximate
Mon 03:50:36 PM 34.5825 -91.9136 301° West 280 322 6,400  Level Memphis Center
Mon 03:51:36 PM 34.6381 -91.9778 316° Northwest 268 308 5,500 -850 Descending Memphis Center
Mon 03:52:43 PM 34.6933 -92.0544 311° West 271 312 4,600 -797 Descending Memphis Center
Mon 03:53:44 PM 34.7450 -92.1011 323° Northwest 227 261 3,800 -835 Descending Memphis Center
Mon 03:54:38 PM 34.7797 -92.1497 311° West 180 207 3,000 -1,266 Descending Memphis Center
Mon 03:55:33 PM 34.7625 -92.1847 239° Southwest 128 147 1,500 -1,293 Descending Memphis Center
Mon 03:56:00 PM 34.7167 -92.2167 301° West  Level FlightAware Approximate
Mon 03:56:34 PM 34.7433 -92.2122 230° Southwest 89 102 500  Level Memphis Center

Login

Don't have an account? Register now (free) for customized features, flight alerts, and more!